createdAt,value
2022-08-29T00:02:09.384Z,100236.09
2022-08-29T00:04:58.758Z,100241.91
2022-08-29T00:07:46.810Z,100246.63
2022-08-29T00:10:37.663Z,100242.97
2022-08-29T00:13:25.461Z,100244.41
2022-08-29T00:16:13.481Z,100249.34
2022-08-29T00:19:01.279Z,100256.19
2022-08-29T00:21:50.061Z,100251.81
2022-08-29T00:24:37.890Z,100247.41
2022-08-29T00:27:25.796Z,100249.13
2022-08-29T00:30:15.254Z,100261.06
2022-08-29T00:33:03.613Z,100256.94
2022-08-29T00:35:51.441Z,100254.41
2022-08-29T00:38:39.424Z,100252.78
2022-08-29T00:41:29.793Z,100261.19
2022-08-29T00:44:17.817Z,100263.88
2022-08-29T00:47:12.488Z,100249.84
2022-08-29T00:50:02.612Z,100253.53
2022-08-29T00:52:50.743Z,100254.94
2022-08-29T00:55:40.450Z,100256.41
2022-08-29T00:58:36.456Z,100258.41
2022-08-29T01:01:24.348Z,100259.38
2022-08-29T01:04:15.706Z,100252.16
2022-08-29T01:07:04.295Z,100258.38
2022-08-29T01:09:53.012Z,100245.31
2022-08-29T01:12:41.323Z,100252.09
2022-08-29T01:15:31.664Z,100270.50
2022-08-29T01:18:20.399Z,100249.47
2022-08-29T01:21:22.457Z,100266.53
2022-08-29T01:24:15.621Z,100260.75
2022-08-29T01:27:03.773Z,100262.38
2022-08-29T01:29:51.610Z,100260.34
2022-08-29T01:32:39.650Z,100259.63
2022-08-29T01:35:28.349Z,100268.63
2022-08-29T01:38:27.581Z,100271.41
2022-08-29T01:41:18.182Z,100256.84
2022-08-29T01:44:13.508Z,100272.38
2022-08-29T01:47:03.380Z,100268.41
2022-08-29T01:49:52.635Z,100260.34
2022-08-29T01:52:43.155Z,100272.63
2022-08-29T01:55:30.974Z,100265.06
2022-08-29T01:58:18.883Z,100272.16
2022-08-29T02:01:07.850Z,100268.03
2022-08-29T02:03:56.030Z,100278.38
2022-08-29T02:06:44.957Z,100276.94
2022-08-29T02:09:32.761Z,100270.66
2022-08-29T02:12:21.621Z,100272.94
2022-08-29T02:15:10.587Z,100279.91
2022-08-29T02:17:58.356Z,100280.59
2022-08-29T02:20:46.489Z,100286.16
2022-08-29T02:23:37.615Z,100288.09
2022-08-29T02:26:25.681Z,100282.50
2022-08-29T02:29:13.468Z,100281.41
2022-08-29T02:32:01.977Z,100276.16
2022-08-29T02:34:49.830Z,100269.84
2022-08-29T02:37:37.716Z,100279.94
2022-08-29T02:40:31.461Z,100272.81
2022-08-29T02:43:21.450Z,100255.97
2022-08-29T02:46:15.957Z,100275.75
2022-08-29T02:49:04.360Z,100280.44
2022-08-29T02:51:52.179Z,100275.50
2022-08-29T02:54:40.043Z,100274.91
2022-08-29T02:57:27.885Z,100280.81
2022-08-29T03:00:21.904Z,100293.66
2022-08-29T03:03:10.136Z,100293.22
2022-08-29T03:05:58.556Z,100298.94
2022-08-29T03:08:46.559Z,100296.44
2022-08-29T03:11:34.880Z,100289.03
2022-08-29T03:14:24.229Z,100287.31
2022-08-29T03:17:12.116Z,100281.31
2022-08-29T03:20:00.041Z,100278.03
2022-08-29T03:22:49.133Z,100281.75
2022-08-29T03:25:37.357Z,100290.09
2022-08-29T03:28:25.715Z,100284.56
2022-08-29T03:31:14.168Z,100291.03
2022-08-29T03:34:01.997Z,100294.59
2022-08-29T03:36:49.843Z,100294.44
2022-08-29T03:39:38.020Z,100295.81
2022-08-29T03:42:25.972Z,100293.19
2022-08-29T03:45:17.548Z,100288.53
2022-08-29T03:48:05.812Z,100300.16
2022-08-29T03:50:56.445Z,100293.16
2022-08-29T03:53:45.692Z,100306.31
2022-08-29T03:56:35.258Z,100261.84
2022-08-29T03:59:24.132Z,100299.63
2022-08-29T04:02:12.082Z,100290.97
2022-08-29T04:05:08.942Z,100293.28
2022-08-29T04:07:59.591Z,100291.28
2022-08-29T04:10:47.360Z,100294.06
2022-08-29T04:13:35.284Z,100293.88
2022-08-29T04:16:30.402Z,100276.84
2022-08-29T04:19:20.951Z,100293.72
2022-08-29T04:22:08.804Z,100299.75
2022-08-29T04:24:56.653Z,100295.72
2022-08-29T04:27:45.084Z,100300.25
2022-08-29T04:30:33.312Z,100306.41
2022-08-29T04:33:25.691Z,100302.69
2022-08-29T04:36:15.054Z,100307.78
2022-08-29T04:39:03.989Z,100307.94
2022-08-29T04:41:51.823Z,100283.28
2022-08-29T04:44:40.094Z,100305.78
2022-08-29T04:47:27.954Z,100304.22
2022-08-29T04:50:20.255Z,100305.34
2022-08-29T04:53:08.119Z,100303.31
2022-08-29T04:56:03.341Z,100303.06
2022-08-29T04:58:52.101Z,100301.22
2022-08-29T05:01:43.117Z,100315.44
2022-08-29T05:04:30.995Z,100308.63
2022-08-29T05:07:25.465Z,100312.53
2022-08-29T05:10:17.595Z,100318.41
2022-08-29T05:13:05.412Z,100300.16
2022-08-29T05:15:53.284Z,100322.13
2022-08-29T05:18:41.678Z,100317.66
2022-08-29T05:21:35.996Z,100336.28
2022-08-29T05:24:24.241Z,100336.91
2022-08-29T05:27:19.621Z,100338.59
2022-08-29T05:30:08.633Z,100335.81
2022-08-29T05:32:56.521Z,100338.59
2022-08-29T05:35:45.106Z,100337.22
2022-08-29T05:38:33.249Z,100335.78
2022-08-29T05:41:21.126Z,100331.72
2022-08-29T05:44:08.964Z,100336.06
2022-08-29T05:46:56.793Z,100331.50
2022-08-29T05:49:46.578Z,100332.22
2022-08-29T05:52:34.383Z,100337.59
2022-08-29T05:55:22.632Z,100336.63
2022-08-29T05:58:12.343Z,100331.72
2022-08-29T06:01:00.195Z,100329.66
2022-08-29T06:03:50.386Z,100333.59
2022-08-29T06:06:41.201Z,100333.81
2022-08-29T06:09:29.070Z,100337.06
2022-08-29T06:12:16.998Z,100332.47
2022-08-29T06:15:05.991Z,100332.41
2022-08-29T06:17:54.767Z,100332.19
2022-08-29T06:20:42.630Z,100343.63
2022-08-29T06:23:30.450Z,100351.06
2022-08-29T06:26:19.737Z,100342.31
2022-08-29T06:29:09.917Z,100339.50
2022-08-29T06:31:59.291Z,100357.06
2022-08-29T06:34:47.392Z,100359.38
2022-08-29T06:37:35.197Z,100369.31
2022-08-29T06:40:23.222Z,100366.69
2022-08-29T06:43:11.067Z,100356.59
2022-08-29T06:45:59.452Z,100365.03
2022-08-29T06:48:47.370Z,100359.25
2022-08-29T06:51:41.873Z,100371.56
2022-08-29T06:54:29.844Z,100371.66
2022-08-29T06:57:17.692Z,100367.28
2022-08-29T07:00:16.834Z,100375.75
2022-08-29T07:03:11.084Z,100368.25
2022-08-29T07:05:59.095Z,100371.50
2022-08-29T07:08:55.662Z,100372.72
2022-08-29T07:11:44.410Z,100368.28
2022-08-29T07:14:32.439Z,100352.44
2022-08-29T07:17:25.948Z,100372.47
2022-08-29T07:20:15.353Z,100364.88
2022-08-29T07:23:03.268Z,100367.06
2022-08-29T07:25:51.113Z,100365.50
2022-08-29T07:28:40.626Z,100363.06
2022-08-29T07:31:33.531Z,100362.25
2022-08-29T07:34:21.429Z,100376.28
2022-08-29T07:37:10.841Z,100375.66
2022-08-29T07:39:58.731Z,100376.56
2022-08-29T07:42:46.710Z,100356.44
2022-08-29T07:45:34.640Z,100386.81
2022-08-29T07:48:24.020Z,100377.13
2022-08-29T07:51:16.441Z,100378.06
2022-08-29T07:54:06.489Z,100376.41
2022-08-29T07:56:54.408Z,100369.88
2022-08-29T07:59:42.362Z,100369.91
2022-08-29T08:02:30.557Z,100383.09
2022-08-29T08:05:20.090Z,100370.28
2022-08-29T08:08:14.885Z,100365.44
2022-08-29T08:11:07.977Z,100378.22
2022-08-29T08:13:57.492Z,100383.66
2022-08-29T08:16:45.900Z,100372.91
2022-08-29T08:19:33.979Z,100374.69
2022-08-29T08:22:22.006Z,100373.13
2022-08-29T08:25:10.160Z,100370.53
2022-08-29T08:27:59.471Z,100373.19
2022-08-29T08:30:48.877Z,100364.03
2022-08-29T08:33:39.055Z,100369.88
2022-08-29T08:36:32.260Z,100362.66
2022-08-29T08:39:22.717Z,100379.06
2022-08-29T08:42:24.899Z,100379.25
2022-08-29T08:45:27.002Z,100379.13
2022-08-29T08:48:34.458Z,100379.13
2022-08-29T08:51:29.416Z,100387.25
2022-08-29T08:54:34.310Z,100378.88
2022-08-29T08:57:22.953Z,100379.59
2022-08-29T09:00:13.061Z,100380.06
2022-08-29T09:03:18.373Z,100380.94
2022-08-29T09:06:55.563Z,100377.38
2022-08-29T09:10:16.289Z,100373.81
2022-08-29T09:13:36.738Z,100379.13
2022-08-29T09:16:34.969Z,100365.38
2022-08-29T09:19:27.770Z,100374.53
2022-08-29T09:22:32.811Z,100369.75
2022-08-29T09:25:27.892Z,100382.72
2022-08-29T09:28:18.187Z,100369.00
2022-08-29T09:31:32.907Z,100381.78
2022-08-29T09:35:06.918Z,100375.53
2022-08-29T09:38:01.140Z,100374.88
2022-08-29T09:41:01.247Z,100370.22
2022-08-29T09:43:52.708Z,100365.44
2022-08-29T09:46:42.845Z,100376.28
2022-08-29T09:49:32.450Z,100373.81
2022-08-29T09:52:26.620Z,100365.16
2022-08-29T09:55:23.973Z,100367.84
2022-08-29T09:58:34.246Z,100370.09
2022-08-29T10:01:28.803Z,100374.56
2022-08-29T10:04:40.562Z,100369.63
2022-08-29T10:07:45.917Z,100341.28
2022-08-29T10:10:54.907Z,100360.75
2022-08-29T10:13:58.776Z,100361.41
2022-08-29T10:17:42.174Z,100360.84
2022-08-29T10:21:10.398Z,100365.97
2022-08-29T10:24:57.937Z,100354.38
2022-08-29T10:28:06.325Z,100359.88
2022-08-29T10:31:33.920Z,100351.56
2022-08-29T10:35:06.540Z,100352.69
2022-08-29T10:38:28.954Z,100344.53
2022-08-29T10:41:57.097Z,100341.53
2022-08-29T10:45:14.940Z,100347.41
2022-08-29T10:48:29.838Z,100340.94
2022-08-29T10:51:42.025Z,100341.06
2022-08-29T10:55:06.714Z,100332.47
2022-08-29T10:58:21.881Z,100329.72
2022-08-29T11:01:38.779Z,100333.53
2022-08-29T11:04:39.517Z,100334.72
2022-08-29T11:07:42.649Z,100332.13
2022-08-29T11:10:40.598Z,100337.63
2022-08-29T11:13:48.129Z,100322.38
2022-08-29T11:16:50.599Z,100321.94
2022-08-29T11:19:50.224Z,100332.22
2022-08-29T11:23:00.409Z,100309.16
2022-08-29T11:25:51.237Z,100309.63
2022-08-29T11:29:37.515Z,100307.75
2022-08-29T11:32:56.255Z,100314.84
2022-08-29T11:36:43.363Z,100304.97
2022-08-29T11:40:10.193Z,100300.00
2022-08-29T11:43:02.556Z,100291.22
2022-08-29T11:46:07.537Z,100290.59
2022-08-29T11:49:27.858Z,100300.47
2022-08-29T11:52:25.636Z,100299.88
2022-08-29T11:55:31.814Z,100288.81
2022-08-29T11:58:22.767Z,100290.97
2022-08-29T12:01:34.346Z,100286.09
2022-08-29T12:05:03.524Z,100288.34
2022-08-29T12:08:38.430Z,100280.72
2022-08-29T12:12:14.152Z,100272.56
2022-08-29T12:15:32.416Z,100269.06
2022-08-29T12:18:20.359Z,100271.81
2022-08-29T12:21:37.718Z,100270.50
2022-08-29T12:24:42.993Z,100255.31
2022-08-29T12:28:20.832Z,100253.41
2022-08-29T12:32:08.713Z,100256.00
2022-08-29T12:35:47.401Z,100251.09
2022-08-29T12:39:09.215Z,100262.50
2022-08-29T12:42:39.988Z,100245.91
2022-08-29T12:45:32.732Z,100247.09
2022-08-29T12:48:32.342Z,100240.44
2022-08-29T12:51:42.617Z,100239.66
2022-08-29T12:54:42.001Z,100235.41
2022-08-29T12:57:38.948Z,100233.28
2022-08-29T13:00:33.909Z,100223.44
2022-08-29T13:03:25.229Z,100224.94
2022-08-29T13:06:15.596Z,100226.00
2022-08-29T13:09:07.627Z,100217.59
2022-08-29T13:12:21.888Z,100211.16
2022-08-29T13:15:32.099Z,100214.00
2022-08-29T13:18:23.665Z,100213.91
2022-08-29T13:21:27.185Z,100195.47
2022-08-29T13:24:21.664Z,100204.34
2022-08-29T13:27:14.506Z,100181.78
2022-08-29T13:30:04.679Z,100184.31
2022-08-29T13:32:55.860Z,100193.63
2022-08-29T13:35:45.490Z,100194.72
2022-08-29T13:38:37.959Z,100186.50
2022-08-29T13:41:31.076Z,100202.91
2022-08-29T13:44:30.999Z,100198.09
2022-08-29T13:47:33.584Z,100186.13
2022-08-29T13:50:23.962Z,100198.22
2022-08-29T13:53:15.808Z,100187.50
2022-08-29T13:56:21.506Z,100181.41
2022-08-29T13:59:12.918Z,100188.56
2022-08-29T14:02:09.488Z,100180.63
2022-08-29T14:04:59.418Z,100186.22
2022-08-29T14:07:48.999Z,100193.41
2022-08-29T14:10:41.563Z,100179.88
2022-08-29T14:13:33.356Z,100175.19
2022-08-29T14:16:25.004Z,100160.78
2022-08-29T14:19:16.832Z,100151.09
2022-08-29T14:22:07.480Z,100166.06
2022-08-29T14:24:57.903Z,100170.91
2022-08-29T14:27:48.178Z,100169.69
2022-08-29T14:30:41.148Z,100166.28
2022-08-29T14:33:43.067Z,100159.56
2022-08-29T14:36:38.578Z,100157.97
2022-08-29T14:39:35.939Z,100161.44
2022-08-29T14:42:25.799Z,100142.69
2022-08-29T14:45:15.964Z,100153.94
2022-08-29T14:48:06.852Z,100151.31
2022-08-29T14:50:57.638Z,100154.59
2022-08-29T14:53:54.225Z,100144.84
2022-08-29T14:56:48.750Z,100153.06
2022-08-29T14:59:42.797Z,100156.97
2022-08-29T15:02:32.453Z,100145.94
2022-08-29T15:05:22.485Z,100143.78
2022-08-29T15:08:15.805Z,100130.47
2022-08-29T15:11:13.490Z,100139.63
2022-08-29T15:14:04.385Z,100151.31
2022-08-29T15:16:54.547Z,100139.63
2022-08-29T15:20:31.539Z,100132.34
2022-08-29T15:22:56.849Z,100129.50
2022-08-29T15:25:51.868Z,100138.88
2022-08-29T15:28:45.773Z,100122.63
2022-08-29T15:31:35.305Z,100123.38
2022-08-29T15:34:31.137Z,100139.75
2022-08-29T15:37:21.992Z,100124.47
2022-08-29T15:40:13.334Z,100125.88
2022-08-29T15:43:03.492Z,100121.84
2022-08-29T15:45:53.491Z,100131.00
2022-08-29T15:48:46.551Z,100132.75
2022-08-29T15:51:36.461Z,100133.97
2022-08-29T15:54:26.639Z,100124.81
2022-08-29T15:57:15.095Z,100124.59
2022-08-29T16:00:10.258Z,100124.81
2022-08-29T16:03:02.894Z,100120.13
2022-08-29T16:05:53.677Z,100126.44
2022-08-29T16:08:46.836Z,100127.31
2022-08-29T16:11:37.131Z,100117.44
2022-08-29T16:14:58.176Z,100126.41
2022-08-29T16:17:41.376Z,100121.72
2022-08-29T16:20:32.796Z,100129.16
2022-08-29T16:23:24.241Z,100120.13
2022-08-29T16:26:13.738Z,100118.97
2022-08-29T16:29:06.449Z,100116.69
2022-08-29T16:32:01.218Z,100108.84
2022-08-29T16:34:52.438Z,100115.38
2022-08-29T16:37:45.146Z,100117.38
2022-08-29T16:40:36.900Z,100125.19
2022-08-29T16:43:27.733Z,100109.03
2022-08-29T16:46:21.561Z,100113.63
2022-08-29T16:49:11.186Z,100086.13
2022-08-29T16:52:03.686Z,100119.28
2022-08-29T16:54:56.987Z,100111.53
2022-08-29T16:58:06.129Z,100110.22
2022-08-29T17:01:00.287Z,100104.75
2022-08-29T17:03:48.554Z,100098.75
2022-08-29T17:06:39.716Z,100106.28
2022-08-29T17:09:27.798Z,100103.53
2022-08-29T17:12:16.301Z,100107.66
2022-08-29T17:15:04.853Z,100103.06
2022-08-29T17:17:55.283Z,100112.13
2022-08-29T17:20:46.275Z,100102.09
2022-08-29T17:23:38.336Z,100103.72
2022-08-29T17:26:28.991Z,100097.38
2022-08-29T17:29:17.590Z,100107.72
2022-08-29T17:32:09.892Z,100104.72
2022-08-29T17:35:01.914Z,100112.69
2022-08-29T17:37:52.081Z,100100.22
2022-08-29T17:40:43.830Z,100107.19
2022-08-29T17:43:36.422Z,100115.38
2022-08-29T17:46:29.441Z,100105.50
2022-08-29T17:49:19.992Z,100113.31
2022-08-29T17:52:11.169Z,100114.63
2022-08-29T17:55:06.620Z,100124.72
2022-08-29T17:57:59.197Z,100114.09
2022-08-29T18:00:49.725Z,100119.06
2022-08-29T18:03:40.651Z,100114.25
2022-08-29T18:06:32.513Z,100119.16
2022-08-29T18:09:25.839Z,100111.72
2022-08-29T18:12:17.891Z,100109.19
2022-08-29T18:15:09.273Z,100120.81
2022-08-29T18:17:59.933Z,100120.16
2022-08-29T18:20:50.797Z,100124.88
2022-08-29T18:23:41.719Z,100120.34
2022-08-29T18:26:32.026Z,100128.91
2022-08-29T18:29:21.917Z,100126.44
2022-08-29T18:32:11.708Z,100135.34
2022-08-29T18:35:04.320Z,100139.72
2022-08-29T18:37:54.970Z,100130.31
2022-08-29T18:40:46.754Z,100140.63
2022-08-29T18:43:40.764Z,100139.25
2022-08-29T18:46:32.470Z,100144.81
2022-08-29T18:49:40.842Z,100138.31
2022-08-29T18:52:29.978Z,100148.38
2022-08-29T18:55:19.906Z,100149.44
2022-08-29T18:58:10.958Z,100155.63
2022-08-29T19:01:11.304Z,100155.91
2022-08-29T19:04:02.313Z,100143.94
2022-08-29T19:06:50.380Z,100149.34
2022-08-29T19:09:38.408Z,100154.50
2022-08-29T19:12:26.422Z,100160.91
2022-08-29T19:15:15.440Z,100161.72
2022-08-29T19:18:06.877Z,100169.69
2022-08-29T19:21:06.639Z,100174.56
2022-08-29T19:23:55.877Z,100168.44
2022-08-29T19:26:43.940Z,100181.75
2022-08-29T19:29:31.978Z,100183.56
2022-08-29T19:32:20.015Z,100191.78
2022-08-29T19:35:10.976Z,100184.13
2022-08-29T19:37:59.389Z,100177.72
2022-08-29T19:40:48.643Z,100171.09
2022-08-29T19:43:38.635Z,100169.78
2022-08-29T19:46:27.519Z,100186.19
2022-08-29T19:49:15.472Z,100186.19
2022-08-29T19:52:04.167Z,100173.88
2022-08-29T19:54:53.889Z,100180.50
2022-08-29T19:57:43.840Z,100184.59
2022-08-29T20:00:32.804Z,100173.81
2022-08-29T20:03:20.879Z,100181.25
2022-08-29T20:06:09.806Z,100185.88
2022-08-29T20:08:58.455Z,100177.97
2022-08-29T20:11:47.539Z,100176.91
2022-08-29T20:14:35.533Z,100176.91
2022-08-29T20:17:23.410Z,100172.06
2022-08-29T20:20:18.676Z,100172.78
2022-08-29T20:23:07.815Z,100179.72
2022-08-29T20:25:55.805Z,100178.19
2022-08-29T20:28:43.787Z,100169.22
2022-08-29T20:31:32.440Z,100181.50
2022-08-29T20:34:20.589Z,100159.69
2022-08-29T20:37:08.758Z,100180.94
2022-08-29T20:39:57.505Z,100180.94
2022-08-29T20:42:45.527Z,100172.72
2022-08-29T20:45:33.854Z,100188.53
2022-08-29T20:48:22.275Z,100192.38
2022-08-29T20:51:11.740Z,100200.53
2022-08-29T20:53:59.661Z,100200.78
2022-08-29T20:56:48.536Z,100202.59
2022-08-29T20:59:39.351Z,100204.16
2022-08-29T21:02:46.088Z,100206.19
2022-08-29T21:05:43.147Z,100212.03
2022-08-29T21:08:32.081Z,100203.59
2022-08-29T21:11:20.964Z,100204.84
2022-08-29T21:14:10.240Z,100203.81
2022-08-29T21:16:58.494Z,100207.88
2022-08-29T21:19:47.260Z,100207.63
2022-08-29T21:22:35.318Z,100212.47
2022-08-29T21:25:23.229Z,100219.28
2022-08-29T21:28:13.987Z,100200.81
2022-08-29T21:31:10.400Z,100215.22
2022-08-29T21:34:00.359Z,100204.66
2022-08-29T21:36:50.577Z,100211.28
2022-08-29T21:39:38.460Z,100197.94
2022-08-29T21:42:26.344Z,100206.28
2022-08-29T21:45:14.280Z,100214.69
2022-08-29T21:48:02.182Z,100210.06
2022-08-29T21:50:55.738Z,100207.50
2022-08-29T21:53:43.613Z,100211.56
2022-08-29T21:56:33.134Z,100209.47
2022-08-29T21:59:21.816Z,100215.00
2022-08-29T22:02:09.878Z,100198.38
2022-08-29T22:04:57.781Z,100223.22
2022-08-29T22:07:46.009Z,100227.81
2022-08-29T22:10:36.968Z,100232.63
2022-08-29T22:13:24.810Z,100231.06
2022-08-29T22:16:30.802Z,100230.59
2022-08-29T22:19:19.077Z,100226.75
2022-08-29T22:22:06.965Z,100227.47
2022-08-29T22:24:54.822Z,100227.63
2022-08-29T22:27:42.706Z,100229.09
2022-08-29T22:30:32.415Z,100231.19
2022-08-29T22:33:20.915Z,100222.97
2022-08-29T22:36:13.109Z,100217.84
2022-08-29T22:39:01.037Z,100230.69
2022-08-29T22:41:48.911Z,100235.56
2022-08-29T22:47:46.710Z,100228.03
2022-08-29T22:50:36.153Z,100235.91
2022-08-29T22:53:24.174Z,100209.19
2022-08-29T22:56:12.024Z,100238.44
2022-08-29T22:59:00.856Z,100241.50
2022-08-29T23:01:49.188Z,100248.13
2022-08-29T23:04:38.479Z,100244.22
2022-08-29T23:07:26.642Z,100243.44
2022-08-29T23:10:15.486Z,100233.91
2022-08-29T23:13:03.508Z,100234.00
2022-08-29T23:15:51.449Z,100226.25
2022-08-29T23:18:39.572Z,100230.06
2022-08-29T23:21:29.262Z,100242.03
2022-08-29T23:24:18.532Z,100241.97
2022-08-29T23:27:07.065Z,100237.06
2022-08-29T23:29:55.036Z,100229.41
2022-08-29T23:32:42.899Z,100234.22
2022-08-29T23:35:30.729Z,100237.66
2022-08-29T23:38:19.003Z,100244.44
2022-08-29T23:41:07.193Z,100209.94
2022-08-29T23:43:55.139Z,100249.31
2022-08-29T23:46:43.085Z,100252.41
2022-08-29T23:49:31.377Z,100217.78
2022-08-29T23:52:19.377Z,100243.94
2022-08-29T23:55:08.387Z,100244.44
2022-08-29T23:57:56.240Z,100229.00
